createdAt,value
2018-08-29T00:00:50.656Z,982.26
2018-08-29T00:01:50.634Z,982.23
2018-08-29T00:02:50.590Z,982.23
2018-08-29T00:03:50.557Z,982.24
2018-08-29T00:04:50.520Z,982.20
2018-08-29T00:05:50.485Z,982.19
2018-08-29T00:06:50.450Z,982.22
2018-08-29T00:07:50.413Z,982.18
2018-08-29T00:08:50.384Z,982.23
2018-08-29T00:09:50.349Z,982.19
2018-08-29T00:10:50.322Z,982.21
2018-08-29T00:11:50.285Z,982.23
2018-08-29T00:12:50.249Z,982.20
2018-08-29T00:13:50.212Z,982.17
2018-08-29T00:14:50.173Z,982.19
2018-08-29T00:15:50.146Z,982.21
2018-08-29T00:16:50.114Z,982.18
2018-08-29T00:17:50.072Z,982.19
2018-08-29T00:18:50.055Z,982.21
2018-08-29T00:19:50.003Z,982.19
2018-08-29T00:20:49.979Z,982.21
2018-08-29T00:21:49.940Z,982.18
2018-08-29T00:22:49.904Z,982.20
2018-08-29T00:23:49.869Z,982.23
2018-08-29T00:24:49.833Z,982.26
2018-08-29T00:25:49.804Z,982.27
2018-08-29T00:26:49.764Z,982.25
2018-08-29T00:27:49.728Z,982.24
2018-08-29T00:28:49.697Z,982.26
2018-08-29T00:29:49.665Z,982.26
2018-08-29T00:30:49.634Z,982.24
2018-08-29T00:31:49.603Z,982.26
2018-08-29T00:32:49.560Z,982.29
2018-08-29T00:33:49.524Z,982.27
2018-08-29T00:34:49.494Z,982.26
2018-08-29T00:35:49.461Z,982.24
2018-08-29T00:36:49.420Z,982.25
2018-08-29T00:37:49.384Z,982.19
2018-08-29T00:38:49.346Z,982.20
2018-08-29T00:39:49.315Z,982.16
2018-08-29T00:40:49.280Z,982.17
2018-08-29T00:41:49.252Z,982.09
2018-08-29T00:42:49.217Z,982.12
2018-08-29T00:43:49.184Z,982.06
2018-08-29T00:44:49.144Z,982.05
2018-08-29T00:45:49.108Z,982.06
2018-08-29T00:46:49.072Z,982.07
2018-08-29T00:47:49.044Z,982.07
2018-08-29T00:48:49.009Z,982.03
2018-08-29T00:49:48.970Z,982.02
2018-08-29T00:50:48.936Z,981.98
2018-08-29T00:51:48.910Z,982.06
2018-08-29T00:52:48.872Z,982.01
2018-08-29T00:53:48.837Z,981.99
2018-08-29T00:54:48.804Z,981.99
2018-08-29T00:55:48.770Z,982.01
2018-08-29T00:56:48.734Z,981.99
2018-08-29T00:57:48.699Z,981.99
2018-08-29T00:58:48.667Z,981.98
2018-08-29T00:59:48.627Z,981.96
2018-08-29T01:00:48.597Z,981.92
2018-08-29T01:01:48.564Z,981.92
2018-08-29T01:02:48.527Z,981.92
2018-08-29T01:03:48.488Z,981.89
2018-08-29T01:04:48.455Z,981.88
2018-08-29T01:05:48.423Z,981.85
2018-08-29T01:06:48.389Z,981.81
2018-08-29T01:07:48.356Z,981.81
2018-08-29T01:08:48.320Z,981.77
2018-08-29T01:09:48.285Z,981.76
2018-08-29T01:10:48.247Z,981.74
2018-08-29T01:11:48.213Z,981.69
2018-08-29T01:12:48.182Z,981.66
2018-08-29T01:13:48.153Z,981.61
2018-08-29T01:14:48.116Z,981.60
2018-08-29T01:15:48.084Z,981.60
2018-08-29T01:16:48.046Z,981.60
2018-08-29T01:17:48.007Z,981.62
2018-08-29T01:18:47.977Z,981.61
2018-08-29T01:19:47.946Z,981.58
2018-08-29T01:20:47.906Z,981.56
2018-08-29T01:21:47.869Z,981.53
2018-08-29T01:22:47.835Z,981.55
2018-08-29T01:23:47.799Z,981.54
2018-08-29T01:24:47.767Z,981.51
2018-08-29T01:25:47.733Z,981.49
2018-08-29T01:26:47.702Z,981.51
2018-08-29T01:27:47.671Z,981.53
2018-08-29T01:28:47.629Z,981.50
2018-08-29T01:29:47.593Z,981.51
2018-08-29T01:30:47.558Z,981.54
2018-08-29T01:31:47.525Z,981.53
2018-08-29T01:32:47.495Z,981.54
2018-08-29T01:33:47.459Z,981.57
2018-08-29T01:34:47.425Z,981.58
2018-08-29T01:35:47.386Z,981.59
2018-08-29T01:36:47.356Z,981.56
2018-08-29T01:37:47.320Z,981.59
2018-08-29T01:38:47.289Z,981.59
2018-08-29T01:39:47.252Z,981.60
2018-08-29T01:40:47.222Z,981.65
2018-08-29T01:41:47.180Z,981.65
2018-08-29T01:42:47.142Z,981.68
2018-08-29T01:43:47.107Z,981.69
2018-08-29T01:44:47.076Z,981.66
2018-08-29T01:45:47.042Z,981.64
2018-08-29T01:46:47.009Z,981.63
2018-08-29T01:47:46.981Z,981.66
2018-08-29T01:48:46.942Z,981.63
2018-08-29T01:49:46.903Z,981.62
2018-08-29T01:50:46.867Z,981.61
2018-08-29T01:51:46.839Z,981.63
2018-08-29T01:52:46.802Z,981.59
2018-08-29T01:53:46.771Z,981.60
2018-08-29T01:54:46.728Z,981.52
2018-08-29T01:55:46.693Z,981.53
2018-08-29T01:56:46.667Z,981.50
2018-08-29T01:57:46.629Z,981.44
2018-08-29T01:58:46.597Z,981.43
2018-08-29T01:59:46.563Z,981.41
2018-08-29T02:00:46.525Z,981.42
2018-08-29T02:01:46.489Z,981.40
2018-08-29T02:02:46.451Z,981.41
2018-08-29T02:03:46.417Z,981.38
2018-08-29T02:04:46.384Z,981.37
2018-08-29T02:05:46.359Z,981.34
2018-08-29T02:06:46.320Z,981.32
2018-08-29T02:07:46.278Z,981.29
2018-08-29T02:08:46.247Z,981.27
2018-08-29T02:09:46.213Z,981.25
2018-08-29T02:10:46.191Z,981.27
2018-08-29T02:11:46.145Z,981.26
2018-08-29T02:12:46.112Z,981.31
2018-08-29T02:13:46.073Z,981.31
2018-08-29T02:14:46.036Z,981.36
2018-08-29T02:15:46.001Z,981.32
2018-08-29T02:16:45.969Z,981.31
2018-08-29T02:17:45.938Z,981.34
2018-08-29T02:18:45.903Z,981.37
2018-08-29T02:19:45.869Z,981.36
2018-08-29T02:20:45.832Z,981.33
2018-08-29T02:21:45.796Z,981.33
2018-08-29T02:22:45.766Z,981.35
2018-08-29T02:23:45.733Z,981.34
2018-08-29T02:24:45.704Z,981.36
2018-08-29T02:25:45.657Z,981.34
2018-08-29T02:26:45.620Z,981.34
2018-08-29T02:27:45.585Z,981.33
2018-08-29T02:28:45.553Z,981.30
2018-08-29T02:29:45.522Z,981.25
2018-08-29T02:30:45.488Z,981.23
2018-08-29T02:31:45.455Z,981.26
2018-08-29T02:32:45.422Z,981.30
2018-08-29T02:33:45.381Z,981.26
2018-08-29T02:34:45.345Z,981.26
2018-08-29T02:35:45.313Z,981.26
2018-08-29T02:36:45.281Z,981.26
2018-08-29T02:37:45.246Z,981.25
2018-08-29T02:38:45.221Z,981.25
2018-08-29T02:39:45.172Z,981.23
2018-08-29T02:40:45.140Z,981.23
2018-08-29T02:41:45.108Z,981.24
2018-08-29T02:42:45.073Z,981.24
2018-08-29T02:43:45.039Z,981.27
2018-08-29T02:44:45.002Z,981.25
2018-08-29T02:45:44.969Z,981.24
2018-08-29T02:46:44.929Z,981.23
2018-08-29T02:47:44.895Z,981.21
2018-08-29T02:48:44.864Z,981.22
2018-08-29T02:49:44.831Z,981.22
2018-08-29T02:50:44.800Z,981.21
2018-08-29T02:51:44.764Z,981.21
2018-08-29T02:52:44.725Z,981.21
2018-08-29T02:53:44.688Z,981.17
2018-08-29T02:54:44.650Z,981.17
2018-08-29T02:55:44.624Z,981.09
2018-08-29T02:56:44.587Z,981.09
2018-08-29T02:57:44.552Z,981.06
2018-08-29T02:58:44.512Z,981.08
2018-08-29T02:59:44.480Z,981.03
2018-08-29T03:00:44.447Z,981.02
2018-08-29T03:01:44.415Z,981.03
2018-08-29T03:02:44.382Z,980.98
2018-08-29T03:03:44.369Z,980.99
2018-08-29T03:04:44.314Z,980.96
2018-08-29T03:05:44.276Z,980.94
2018-08-29T03:06:44.235Z,980.90
2018-08-29T03:07:44.200Z,980.87
2018-08-29T03:08:44.168Z,980.88
2018-08-29T03:09:44.141Z,980.86
2018-08-29T03:10:44.108Z,980.85
2018-08-29T03:11:44.071Z,980.89
2018-08-29T03:12:44.034Z,980.92
2018-08-29T03:13:43.997Z,980.93
2018-08-29T03:14:43.965Z,980.97
2018-08-29T03:15:43.935Z,980.96
2018-08-29T03:16:43.899Z,980.91
2018-08-29T03:17:43.856Z,980.90
2018-08-29T03:18:43.819Z,980.91
2018-08-29T03:19:43.833Z,980.93
2018-08-29T03:20:43.752Z,980.93
2018-08-29T03:21:43.728Z,980.95
2018-08-29T03:22:43.686Z,980.96
2018-08-29T03:23:43.652Z,980.97
2018-08-29T03:24:43.615Z,981.02
2018-08-29T03:25:43.578Z,980.99
2018-08-29T03:26:43.544Z,981.02
2018-08-29T03:27:43.518Z,981.02
2018-08-29T03:28:43.479Z,981.00
2018-08-29T03:29:43.448Z,981.00
2018-08-29T03:30:43.403Z,981.03
2018-08-29T03:31:43.369Z,981.02
2018-08-29T03:32:43.337Z,980.99
2018-08-29T03:33:43.305Z,981.01
2018-08-29T03:34:43.269Z,980.96
2018-08-29T03:35:43.234Z,980.99
2018-08-29T03:36:43.201Z,980.97
2018-08-29T03:37:43.172Z,980.94
2018-08-29T03:38:43.126Z,980.91
2018-08-29T03:39:43.093Z,980.91
2018-08-29T03:40:43.061Z,980.85
2018-08-29T03:41:43.028Z,980.85
2018-08-29T03:42:43.036Z,980.86
2018-08-29T03:43:42.951Z,980.81
2018-08-29T03:44:42.920Z,980.81
2018-08-29T03:45:42.886Z,980.82
2018-08-29T03:46:42.853Z,980.85
2018-08-29T03:47:42.821Z,980.84
2018-08-29T03:48:42.783Z,980.88
2018-08-29T03:49:42.745Z,980.89
2018-08-29T03:50:42.712Z,980.92
2018-08-29T03:51:42.675Z,980.93
2018-08-29T03:52:42.638Z,980.92
2018-08-29T03:53:42.631Z,980.92
2018-08-29T04:06:43.932Z,980.88
2018-08-29T04:07:43.864Z,980.88
2018-08-29T04:08:43.829Z,980.84
2018-08-29T04:09:43.790Z,980.86
2018-08-29T04:10:43.746Z,980.85
2018-08-29T04:11:43.710Z,980.86
2018-08-29T04:12:43.666Z,980.89
2018-08-29T04:13:43.631Z,980.89
2018-08-29T04:14:43.595Z,980.93
2018-08-29T04:15:43.565Z,980.89
2018-08-29T04:16:43.518Z,980.89
2018-08-29T04:17:43.483Z,980.89
2018-08-29T04:18:43.452Z,980.83
2018-08-29T04:19:43.414Z,980.87
2018-08-29T04:20:43.384Z,980.80
2018-08-29T04:21:43.371Z,980.78
2018-08-29T04:22:43.306Z,980.76
2018-08-29T04:23:43.271Z,980.74
2018-08-29T04:24:43.240Z,980.75
2018-08-29T04:25:43.201Z,980.75
2018-08-29T04:26:43.167Z,980.76
2018-08-29T04:27:43.134Z,980.77
2018-08-29T04:28:43.088Z,980.77
2018-08-29T04:29:43.055Z,980.74
2018-08-29T04:30:43.019Z,980.69
2018-08-29T04:31:42.982Z,980.72
2018-08-29T04:32:42.952Z,980.72
2018-08-29T04:33:42.914Z,980.69
2018-08-29T04:34:42.880Z,980.69
2018-08-29T04:35:42.849Z,980.68
2018-08-29T04:36:42.810Z,980.72
2018-08-29T04:37:42.780Z,980.66
2018-08-29T04:38:42.739Z,980.66
2018-08-29T04:39:42.706Z,980.67
2018-08-29T04:40:42.664Z,980.64
2018-08-29T04:41:42.631Z,980.62
2018-08-29T04:42:42.596Z,980.63
2018-08-29T04:43:42.574Z,980.60
2018-08-29T04:44:42.529Z,980.62
2018-08-29T04:45:42.496Z,980.56
2018-08-29T04:46:42.460Z,980.55
2018-08-29T04:47:42.430Z,980.51
2018-08-29T04:48:42.383Z,980.49
2018-08-29T04:49:42.351Z,980.47
2018-08-29T04:50:42.318Z,980.46
2018-08-29T04:51:42.279Z,980.44
2018-08-29T04:52:42.253Z,980.39
2018-08-29T04:53:42.215Z,980.40
2018-08-29T04:54:42.176Z,980.36
2018-08-29T04:55:42.141Z,980.39
2018-08-29T04:56:42.109Z,980.41
2018-08-29T04:57:42.074Z,980.43
2018-08-29T04:58:42.042Z,980.39
2018-08-29T04:59:42.006Z,980.38
2018-08-29T05:00:41.964Z,980.38
2018-08-29T05:01:41.931Z,980.39
2018-08-29T05:02:41.897Z,980.38
2018-08-29T05:03:41.862Z,980.36
2018-08-29T05:04:41.830Z,980.36
2018-08-29T05:05:41.794Z,980.35
2018-08-29T05:06:41.760Z,980.34
2018-08-29T05:07:41.728Z,980.35
2018-08-29T05:08:41.686Z,980.33
2018-08-29T05:09:41.669Z,980.38
2018-08-29T05:10:41.625Z,980.41
2018-08-29T05:11:41.588Z,980.41
2018-08-29T05:12:41.545Z,980.35
2018-08-29T05:13:41.512Z,980.37
2018-08-29T05:14:41.477Z,980.32
2018-08-29T05:15:41.440Z,980.31
2018-08-29T05:16:41.412Z,980.28
2018-08-29T05:17:41.376Z,980.24
2018-08-29T05:18:41.410Z,980.23
2018-08-29T05:19:41.316Z,980.22
2018-08-29T05:20:41.266Z,980.20
2018-08-29T05:21:41.238Z,980.23
2018-08-29T05:22:41.203Z,980.20
2018-08-29T05:23:41.163Z,980.19
2018-08-29T05:24:41.168Z,980.22
2018-08-29T05:25:41.097Z,980.17
2018-08-29T05:26:41.067Z,980.23
2018-08-29T05:27:41.023Z,980.21
2018-08-29T05:28:40.994Z,980.26
2018-08-29T05:29:40.956Z,980.21
2018-08-29T05:30:40.928Z,980.23
2018-08-29T05:31:40.890Z,980.25
2018-08-29T05:32:40.851Z,980.22
2018-08-29T05:33:40.822Z,980.22
2018-08-29T05:34:40.840Z,980.28
2018-08-29T05:35:40.756Z,980.30
2018-08-29T05:36:40.715Z,980.32
2018-08-29T05:37:40.679Z,980.34
2018-08-29T05:38:40.645Z,980.34
2018-08-29T05:39:40.611Z,980.38
2018-08-29T05:40:40.571Z,980.42
2018-08-29T05:41:40.540Z,980.41
2018-08-29T05:42:40.506Z,980.46
2018-08-29T05:43:40.475Z,980.51
2018-08-29T05:44:40.434Z,980.52
2018-08-29T05:45:40.401Z,980.54
2018-08-29T05:46:40.366Z,980.54
2018-08-29T05:47:40.346Z,980.55
2018-08-29T05:48:40.305Z,980.58
2018-08-29T05:49:40.271Z,980.59
2018-08-29T05:50:40.229Z,980.55
2018-08-29T05:51:40.197Z,980.61
2018-08-29T05:52:40.160Z,980.60
2018-08-29T05:53:40.124Z,980.63
2018-08-29T05:54:40.092Z,980.63
2018-08-29T05:55:40.054Z,980.66
2018-08-29T05:56:40.027Z,980.70
2018-08-29T05:57:39.989Z,980.74
2018-08-29T05:58:39.953Z,980.77
2018-08-29T05:59:39.921Z,980.76
2018-08-29T06:00:39.887Z,980.78
2018-08-29T06:01:39.874Z,980.79
2018-08-29T06:02:39.820Z,980.82
2018-08-29T06:03:39.787Z,980.81
2018-08-29T06:04:39.751Z,980.85
2018-08-29T06:05:39.713Z,980.85
2018-08-29T06:06:39.680Z,980.90
2018-08-29T06:07:39.644Z,980.89
2018-08-29T06:08:39.616Z,980.86
2018-08-29T06:09:39.582Z,980.90
2018-08-29T06:10:39.546Z,980.94
2018-08-29T06:11:39.520Z,980.93
2018-08-29T06:12:39.475Z,980.97
2018-08-29T06:13:39.444Z,980.95
2018-08-29T06:14:39.412Z,980.98
2018-08-29T06:15:39.378Z,980.98
2018-08-29T06:16:39.341Z,980.96
2018-08-29T06:17:39.306Z,980.96
2018-08-29T06:18:39.303Z,980.95
2018-08-29T06:19:39.239Z,980.89
2018-08-29T06:20:39.208Z,980.93
2018-08-29T06:21:39.188Z,980.91
2018-08-29T06:22:39.141Z,980.90
2018-08-29T06:23:39.108Z,980.93
2018-08-29T06:24:39.068Z,980.93
2018-08-29T06:25:39.047Z,980.95
2018-08-29T06:26:39.016Z,980.95
2018-08-29T06:27:38.973Z,980.99
2018-08-29T06:28:38.943Z,980.95
2018-08-29T06:29:38.904Z,980.93
2018-08-29T06:30:38.869Z,980.97
2018-08-29T06:31:38.834Z,980.94
2018-08-29T06:32:38.866Z,980.92
2018-08-29T06:33:38.774Z,980.90
2018-08-29T06:34:38.743Z,980.91
2018-08-29T06:35:38.714Z,980.89
2018-08-29T06:36:38.672Z,980.89
2018-08-29T06:37:38.635Z,980.84
2018-08-29T06:38:38.605Z,980.78
2018-08-29T06:39:38.621Z,980.75
2018-08-29T06:40:38.541Z,980.67
2018-08-29T06:41:38.506Z,980.63
2018-08-29T06:42:38.482Z,980.63
2018-08-29T06:43:38.441Z,980.63
2018-08-29T06:44:38.401Z,980.57
2018-08-29T06:45:38.370Z,980.56
2018-08-29T06:46:38.338Z,980.49
2018-08-29T06:47:38.308Z,980.45
2018-08-29T06:48:38.269Z,980.40
2018-08-29T06:49:38.244Z,980.35
2018-08-29T06:50:38.209Z,980.35
2018-08-29T06:51:38.199Z,980.34
2018-08-29T06:52:38.146Z,980.39
2018-08-29T06:53:38.113Z,980.35
2018-08-29T06:54:38.076Z,980.40
2018-08-29T06:55:38.048Z,980.41
2018-08-29T06:56:38.005Z,980.43
2018-08-29T06:57:37.981Z,980.43
2018-08-29T06:58:37.943Z,980.40
2018-08-29T06:59:37.909Z,980.42
2018-08-29T07:00:37.881Z,980.45
2018-08-29T07:01:37.847Z,980.45
2018-08-29T07:02:37.812Z,980.41
2018-08-29T07:03:37.780Z,980.47
2018-08-29T07:04:37.752Z,980.45
2018-08-29T07:05:37.719Z,980.48
2018-08-29T07:06:37.684Z,980.50
2018-08-29T07:07:37.654Z,980.47
2018-08-29T07:08:37.616Z,980.47
2018-08-29T07:09:37.712Z,980.43
2018-08-29T07:10:37.558Z,980.39
2018-08-29T07:11:37.523Z,980.44
2018-08-29T07:12:37.494Z,980.42
2018-08-29T07:13:37.458Z,980.42
2018-08-29T07:14:37.426Z,980.44
2018-08-29T07:15:37.401Z,980.45
2018-08-29T07:16:37.358Z,980.41
2018-08-29T07:17:37.330Z,980.42
2018-08-29T07:18:37.302Z,980.44
2018-08-29T07:19:37.274Z,980.47
2018-08-29T07:20:37.237Z,980.48
2018-08-29T07:21:37.202Z,980.49
2018-08-29T07:22:37.206Z,980.51
2018-08-29T07:23:37.135Z,980.51
2018-08-29T07:24:37.110Z,980.53
2018-08-29T07:25:37.081Z,980.51
2018-08-29T07:26:37.044Z,980.52
2018-08-29T07:27:37.019Z,980.55
2018-08-29T07:28:36.979Z,980.61
2018-08-29T07:29:37.076Z,980.57
2018-08-29T07:30:36.916Z,980.57
2018-08-29T07:31:36.879Z,980.54
2018-08-29T07:32:36.857Z,980.55
2018-08-29T07:33:36.822Z,980.58
2018-08-29T07:34:36.786Z,980.56
2018-08-29T07:35:36.785Z,980.58
2018-08-29T07:36:36.729Z,980.57
2018-08-29T07:37:36.695Z,980.58
2018-08-29T07:38:36.663Z,980.62
2018-08-29T07:39:36.636Z,980.60
2018-08-29T07:40:36.597Z,980.60
2018-08-29T07:41:36.578Z,980.64
2018-08-29T07:42:36.538Z,980.64
2018-08-29T07:43:36.509Z,980.63
2018-08-29T07:44:36.480Z,980.62
2018-08-29T07:45:36.451Z,980.65
2018-08-29T07:46:36.416Z,980.62
2018-08-29T07:47:36.385Z,980.61
2018-08-29T07:48:36.348Z,980.66
2018-08-29T07:49:36.318Z,980.64
2018-08-29T07:50:36.288Z,980.63
2018-08-29T07:51:36.259Z,980.59
2018-08-29T07:52:36.227Z,980.55
2018-08-29T07:53:36.207Z,980.58
2018-08-29T07:54:36.161Z,980.50
2018-08-29T07:55:36.128Z,980.48
2018-08-29T07:56:36.102Z,980.49
2018-08-29T07:57:36.070Z,980.49
2018-08-29T07:58:36.039Z,980.43
2018-08-29T07:59:36.019Z,980.42
2018-08-29T08:00:35.982Z,980.41
2018-08-29T08:01:35.944Z,980.41
2018-08-29T08:02:35.922Z,980.40
2018-08-29T08:03:35.885Z,980.36
2018-08-29T08:04:35.866Z,980.35
2018-08-29T08:05:35.823Z,980.36
2018-08-29T08:06:35.793Z,980.36
2018-08-29T08:07:35.875Z,980.32
2018-08-29T08:08:36.181Z,980.35
2018-08-29T08:09:35.838Z,980.28
2018-08-29T08:10:35.673Z,980.28
2018-08-29T08:11:35.648Z,980.23
2018-08-29T08:12:35.609Z,980.21
2018-08-29T08:13:35.583Z,980.18
2018-08-29T08:14:35.550Z,980.16
2018-08-29T08:15:35.591Z,980.22
2018-08-29T08:16:35.493Z,980.25
2018-08-29T08:17:35.458Z,980.23
2018-08-29T08:18:35.428Z,980.23
2018-08-29T08:19:35.399Z,980.21
2018-08-29T08:20:35.368Z,980.22
2018-08-29T08:21:35.333Z,980.16
2018-08-29T08:22:35.364Z,980.22
2018-08-29T08:23:35.282Z,980.19
2018-08-29T08:24:35.243Z,980.19
2018-08-29T08:25:35.217Z,980.19
2018-08-29T08:26:35.186Z,980.20
2018-08-29T08:27:35.155Z,980.21
2018-08-29T08:28:35.127Z,980.20
2018-08-29T08:29:35.126Z,980.14
2018-08-29T08:30:35.071Z,980.18
2018-08-29T08:31:35.035Z,980.12
2018-08-29T08:32:35.008Z,980.10
2018-08-29T08:33:34.970Z,980.07
2018-08-29T08:34:34.955Z,980.11
2018-08-29T08:35:34.914Z,980.10
2018-08-29T08:36:34.885Z,980.11
2018-08-29T08:37:34.853Z,980.13
2018-08-29T08:38:34.824Z,980.06
2018-08-29T08:39:34.792Z,980.00
2018-08-29T08:40:34.824Z,979.94
2018-08-29T08:41:34.737Z,979.89
2018-08-29T08:42:34.704Z,979.88
2018-08-29T08:43:34.682Z,979.90
2018-08-29T08:44:34.645Z,979.85
2018-08-29T08:45:34.609Z,979.86
2018-08-29T08:46:34.579Z,979.84
2018-08-29T08:47:34.558Z,979.80
2018-08-29T08:48:34.698Z,979.83
2018-08-29T08:49:34.741Z,979.83
2018-08-29T08:50:34.463Z,979.88
2018-08-29T08:51:34.433Z,979.83
2018-08-29T08:52:34.400Z,979.81
2018-08-29T08:53:34.376Z,979.78
2018-08-29T08:54:34.350Z,979.82
2018-08-29T08:55:34.313Z,979.76
2018-08-29T08:56:34.278Z,979.79
2018-08-29T08:57:34.246Z,979.75
2018-08-29T08:58:34.216Z,979.76
2018-08-29T08:59:34.222Z,979.73
2018-08-29T09:00:34.160Z,979.76
2018-08-29T09:01:34.140Z,979.76
2018-08-29T09:02:34.108Z,979.79
2018-08-29T09:03:34.079Z,979.82
2018-08-29T09:04:34.039Z,979.85
2018-08-29T09:05:34.007Z,979.85
2018-08-29T09:06:33.984Z,979.90
2018-08-29T09:07:33.970Z,979.84
2018-08-29T09:08:33.919Z,979.87
2018-08-29T09:09:33.906Z,979.90
2018-08-29T09:10:33.855Z,979.90
2018-08-29T09:11:33.828Z,979.93
2018-08-29T09:12:33.798Z,980.05
2018-08-29T09:13:33.771Z,980.04
2018-08-29T09:14:33.752Z,980.03
2018-08-29T09:15:33.714Z,980.05
2018-08-29T09:16:33.677Z,980.01
2018-08-29T09:17:33.644Z,979.98
2018-08-29T09:18:33.619Z,979.97
2018-08-29T09:19:33.592Z,979.90
2018-08-29T09:20:33.556Z,979.80
2018-08-29T09:21:33.533Z,979.75
2018-08-29T09:22:33.501Z,979.80
2018-08-29T09:23:33.474Z,979.82
2018-08-29T09:24:33.439Z,979.86
2018-08-29T09:25:33.405Z,979.95
2018-08-29T09:26:33.380Z,980.08
2018-08-29T09:27:33.347Z,980.23
2018-08-29T09:28:33.387Z,980.33
2018-08-29T09:29:33.289Z,980.39
2018-08-29T09:30:33.256Z,980.43
2018-08-29T09:31:33.229Z,980.46
2018-08-29T09:32:33.202Z,980.40
2018-08-29T09:33:33.171Z,980.37
2018-08-29T09:34:33.140Z,980.34
2018-08-29T09:35:33.109Z,980.37
2018-08-29T09:36:33.074Z,980.37
2018-08-29T09:37:33.045Z,980.30
2018-08-29T09:38:33.015Z,980.29
2018-08-29T09:39:32.985Z,980.28
2018-08-29T09:40:32.958Z,980.33
2018-08-29T09:41:32.933Z,980.35
2018-08-29T09:42:32.893Z,980.34
2018-08-29T09:43:32.867Z,980.33
2018-08-29T09:44:32.837Z,980.34
2018-08-29T09:45:32.810Z,980.38
2018-08-29T09:46:32.798Z,980.41
2018-08-29T09:47:32.752Z,980.41
2018-08-29T09:48:32.821Z,980.43
2018-08-29T09:49:32.684Z,980.44
2018-08-29T09:50:32.661Z,980.35
2018-08-29T09:51:32.629Z,980.30
2018-08-29T09:52:32.600Z,980.30
2018-08-29T09:53:32.574Z,980.31
2018-08-29T09:54:32.543Z,980.30
2018-08-29T09:55:32.513Z,980.28
2018-08-29T09:56:32.483Z,980.28
2018-08-29T09:57:32.446Z,980.31
2018-08-29T09:58:32.428Z,980.29
2018-08-29T09:59:32.395Z,980.27
2018-08-29T10:00:32.365Z,980.23
2018-08-29T10:01:32.329Z,980.15
2018-08-29T10:02:32.300Z,980.15
2018-08-29T10:03:32.286Z,980.14
2018-08-29T10:04:32.301Z,980.17
2018-08-29T10:05:32.220Z,980.17
2018-08-29T10:06:32.191Z,980.20
2018-08-29T10:21:05.845Z,980.21
2018-08-29T10:22:05.843Z,980.29
2018-08-29T10:23:05.232Z,980.25
2018-08-29T10:24:05.194Z,980.22
2018-08-29T10:25:05.166Z,980.27
2018-08-29T10:26:05.132Z,980.25
2018-08-29T10:27:05.095Z,980.25
2018-08-29T10:28:05.069Z,980.21
2018-08-29T10:29:05.032Z,980.18
2018-08-29T10:30:05.001Z,980.16
2018-08-29T10:31:04.974Z,980.22
2018-08-29T10:32:04.946Z,980.20
2018-08-29T10:33:04.912Z,980.20
2018-08-29T10:34:04.883Z,980.18
2018-08-29T10:35:04.847Z,980.19
2018-08-29T10:36:04.834Z,980.21
2018-08-29T10:37:04.792Z,980.19
2018-08-29T10:38:04.774Z,980.24
2018-08-29T10:39:04.729Z,980.19
2018-08-29T10:40:04.700Z,980.20
2018-08-29T10:41:04.669Z,980.20
2018-08-29T10:42:04.637Z,980.18
2018-08-29T10:43:04.613Z,980.18
2018-08-29T10:44:04.583Z,980.23
2018-08-29T10:45:04.589Z,980.21
2018-08-29T10:46:04.539Z,980.19
2018-08-29T10:47:04.508Z,980.10
2018-08-29T10:48:04.463Z,980.06
2018-08-29T10:49:04.433Z,980.00
2018-08-29T10:50:04.402Z,980.00
2018-08-29T10:51:04.380Z,980.00
2018-08-29T10:52:04.347Z,979.91
2018-08-29T10:53:04.329Z,979.92
2018-08-29T10:54:04.288Z,979.87
2018-08-29T10:55:04.296Z,979.80
2018-08-29T10:56:04.232Z,979.86
2018-08-29T10:57:04.204Z,979.88
2018-08-29T10:58:04.175Z,979.85
2018-08-29T10:59:04.139Z,979.87
2018-08-29T11:00:04.113Z,979.85
2018-08-29T11:01:04.089Z,979.74
2018-08-29T11:02:04.054Z,979.77
2018-08-29T11:03:04.031Z,979.78
2018-08-29T11:04:04.000Z,979.71
2018-08-29T11:05:03.972Z,979.67
2018-08-29T11:06:03.947Z,979.56
2018-08-29T11:07:03.910Z,979.45
2018-08-29T11:08:03.883Z,979.33
2018-08-29T11:09:03.856Z,979.23
2018-08-29T11:10:03.833Z,979.11
2018-08-29T11:11:03.797Z,978.96
2018-08-29T11:12:03.768Z,978.78
2018-08-29T11:13:03.743Z,978.58
2018-08-29T11:14:03.711Z,978.49
2018-08-29T11:15:03.687Z,978.49
2018-08-29T11:16:03.666Z,978.50
2018-08-29T11:17:03.630Z,978.57
2018-08-29T11:18:03.598Z,978.66
2018-08-29T11:19:03.570Z,978.81
2018-08-29T11:20:03.537Z,978.90
2018-08-29T11:21:03.510Z,978.99
2018-08-29T11:22:03.510Z,979.06
2018-08-29T11:23:03.454Z,979.08
2018-08-29T11:24:03.433Z,979.07
2018-08-29T11:25:03.394Z,979.01
2018-08-29T11:26:03.370Z,978.93
2018-08-29T11:27:03.341Z,978.93
2018-08-29T11:28:03.381Z,978.86
2018-08-29T11:29:03.283Z,978.85
2018-08-29T11:30:03.254Z,978.81
2018-08-29T11:31:03.223Z,978.79
2018-08-29T11:32:03.201Z,978.76
2018-08-29T11:33:03.163Z,978.78
2018-08-29T11:34:03.142Z,978.78
2018-08-29T11:35:03.110Z,978.74
2018-08-29T11:36:03.082Z,978.68
2018-08-29T11:37:03.054Z,978.71
2018-08-29T11:38:03.024Z,978.64
2018-08-29T11:39:02.995Z,978.66
2018-08-29T11:40:02.997Z,978.65
2018-08-29T11:41:02.942Z,978.62
2018-08-29T11:42:02.933Z,978.59
2018-08-29T11:43:03.091Z,978.61
2018-08-29T11:44:02.849Z,978.62
2018-08-29T11:45:02.832Z,978.64
2018-08-29T11:46:02.795Z,978.67
2018-08-29T11:47:02.765Z,978.69
2018-08-29T11:48:02.739Z,978.72
2018-08-29T11:49:02.710Z,978.71
2018-08-29T11:50:02.684Z,978.77
2018-08-29T11:51:02.655Z,978.79
2018-08-29T11:52:02.624Z,978.76
2018-08-29T11:53:02.593Z,978.78
2018-08-29T11:54:02.564Z,978.83
2018-08-29T11:55:02.563Z,978.82
2018-08-29T11:56:02.510Z,978.79
2018-08-29T11:57:02.478Z,978.77
2018-08-29T11:58:02.452Z,978.83
2018-08-29T11:59:02.423Z,978.84
2018-08-29T12:00:02.397Z,978.88
2018-08-29T12:01:02.435Z,978.90
2018-08-29T12:02:02.357Z,978.91
2018-08-29T12:03:02.309Z,978.88
2018-08-29T12:04:02.283Z,978.91
2018-08-29T12:05:02.250Z,978.96
2018-08-29T12:06:02.232Z,978.91
2018-08-29T12:07:02.205Z,978.98
2018-08-29T12:08:02.184Z,978.98
2018-08-29T12:09:02.149Z,978.96
2018-08-29T12:10:02.111Z,978.99
2018-08-29T12:11:02.081Z,979.00
2018-08-29T12:12:02.060Z,979.00
2018-08-29T12:13:02.032Z,979.01
2018-08-29T12:14:02.006Z,979.01
2018-08-29T12:15:01.976Z,979.00
2018-08-29T12:16:01.981Z,979.03
2018-08-29T12:17:01.910Z,979.04
2018-08-29T12:18:01.885Z,979.02
2018-08-29T12:19:01.895Z,979.04
2018-08-29T12:20:01.923Z,979.01
2018-08-29T12:21:01.892Z,979.02
2018-08-29T12:22:01.773Z,979.02
2018-08-29T12:23:01.741Z,978.99
2018-08-29T12:24:01.713Z,978.99
2018-08-29T12:25:01.685Z,978.97
2018-08-29T12:26:01.696Z,979.01
2018-08-29T12:27:01.630Z,978.99
2018-08-29T12:28:01.604Z,978.99
2018-08-29T12:29:01.573Z,978.95
2018-08-29T12:30:01.546Z,979.01
2018-08-29T12:31:01.552Z,978.98
2018-08-29T12:32:01.492Z,978.94
2018-08-29T12:33:01.465Z,978.98
2018-08-29T12:34:01.436Z,978.94
2018-08-29T12:35:01.403Z,978.92
2018-08-29T12:36:01.372Z,978.95
2018-08-29T12:37:01.345Z,978.95
2018-08-29T12:38:01.320Z,978.92
2018-08-29T12:39:01.293Z,978.94
2018-08-29T12:40:01.271Z,978.95
2018-08-29T12:41:01.239Z,979.00
2018-08-29T12:42:01.209Z,978.99
2018-08-29T12:43:01.177Z,978.99
2018-08-29T12:44:01.148Z,979.02
2018-08-29T12:45:01.130Z,979.03
2018-08-29T12:46:01.095Z,979.05
2018-08-29T12:47:01.062Z,979.07
2018-08-29T12:48:01.036Z,979.13
2018-08-29T12:49:01.011Z,979.15
2018-08-29T12:50:01.048Z,979.20
2018-08-29T12:51:00.953Z,979.20
2018-08-29T12:52:00.929Z,979.22
2018-08-29T12:53:00.904Z,979.29
2018-08-29T12:54:00.872Z,979.30